sensor_id;sensor_type;location;lat;lon;timestamp;P1;durP1;ratioP1;P2;durP2;ratioP2
23531;SDS011;11943;52.270;20.978;2023-05-19T00:01:56;3.05;;;2.10;;
23531;SDS011;11943;52.270;20.978;2023-05-19T00:04:24;3.05;;;2.00;;
23531;SDS011;11943;52.270;20.978;2023-05-19T00:06:51;3.60;;;1.80;;
23531;SDS011;11943;52.270;20.978;2023-05-19T00:09:18;3.77;;;2.07;;
23531;SDS011;11943;52.270;20.978;2023-05-19T00:11:44;5.22;;;2.03;;
23531;SDS011;11943;52.270;20.978;2023-05-19T00:14:10;2.38;;;1.85;;
23531;SDS011;11943;52.270;20.978;2023-05-19T00:16:37;3.30;;;2.03;;
23531;SDS011;11943;52.270;20.978;2023-05-19T00:19:03;4.28;;;1.70;;
23531;SDS011;11943;52.270;20.978;2023-05-19T00:21:29;3.50;;;2.28;;
23531;SDS011;11943;52.270;20.978;2023-05-19T00:23:55;3.88;;;1.95;;
23531;SDS011;11943;52.270;20.978;2023-05-19T00:26:22;2.03;;;1.80;;
23531;SDS011;11943;52.270;20.978;2023-05-19T00:28:48;3.35;;;2.13;;
23531;SDS011;11943;52.270;20.978;2023-05-19T00:31:14;4.60;;;1.98;;
23531;SDS011;11943;52.270;20.978;2023-05-19T00:33:40;3.28;;;2.00;;
23531;SDS011;11943;52.270;20.978;2023-05-19T00:36:06;5.78;;;1.95;;
23531;SDS011;11943;52.270;20.978;2023-05-19T00:38:33;3.97;;;2.42;;
23531;SDS011;11943;52.270;20.978;2023-05-19T00:43:26;3.90;;;2.30;;
23531;SDS011;11943;52.270;20.978;2023-05-19T00:45:51;3.33;;;1.88;;
23531;SDS011;11943;52.270;20.978;2023-05-19T00:48:17;6.72;;;2.55;;
23531;SDS011;11943;52.270;20.978;2023-05-19T00:50:43;2.65;;;2.10;;
23531;SDS011;11943;52.270;20.978;2023-05-19T00:53:09;2.38;;;2.13;;
23531;SDS011;11943;52.270;20.978;2023-05-19T00:55:36;2.72;;;2.10;;
23531;SDS011;11943;52.270;20.978;2023-05-19T00:58:04;5.20;;;2.10;;
23531;SDS011;11943;52.270;20.978;2023-05-19T01:00:31;5.35;;;2.30;;
23531;SDS011;11943;52.270;20.978;2023-05-19T01:02:57;2.22;;;2.03;;
23531;SDS011;11943;52.270;20.978;2023-05-19T01:05:23;3.33;;;2.20;;
23531;SDS011;11943;52.270;20.978;2023-05-19T01:07:49;3.45;;;2.17;;
23531;SDS011;11943;52.270;20.978;2023-05-19T01:12:43;4.35;;;2.50;;
23531;SDS011;11943;52.270;20.978;2023-05-19T01:15:09;3.38;;;2.28;;
23531;SDS011;11943;52.270;20.978;2023-05-19T01:17:46;6.13;;;2.45;;
23531;SDS011;11943;52.270;20.978;2023-05-19T01:20:19;3.42;;;2.30;;
23531;SDS011;11943;52.270;20.978;2023-05-19T01:31:51;4.95;;;2.60;;
23531;SDS011;11943;52.270;20.978;2023-05-19T01:34:22;4.70;;;2.60;;
23531;SDS011;11943;52.270;20.978;2023-05-19T01:36:52;5.70;;;2.60;;
23531;SDS011;11943;52.270;20.978;2023-05-19T01:39:19;3.67;;;2.60;;
23531;SDS011;11943;52.270;20.978;2023-05-19T01:41:46;3.58;;;2.53;;
23531;SDS011;11943;52.270;20.978;2023-05-19T01:44:12;5.22;;;3.25;;
23531;SDS011;11943;52.270;20.978;2023-05-19T01:46:38;4.68;;;2.70;;
23531;SDS011;11943;52.270;20.978;2023-05-19T01:49:05;4.18;;;3.08;;
23531;SDS011;11943;52.270;20.978;2023-05-19T01:51:31;3.73;;;3.00;;
23531;SDS011;11943;52.270;20.978;2023-05-19T01:53:57;6.65;;;2.85;;
23531;SDS011;11943;52.270;20.978;2023-05-19T01:56:45;15.52;;;3.50;;
23531;SDS011;11943;52.270;20.978;2023-05-19T02:02:25;5.18;;;3.30;;
23531;SDS011;11943;52.270;20.978;2023-05-19T02:05:07;3.92;;;3.10;;
23531;SDS011;11943;52.270;20.978;2023-05-19T02:10:30;5.20;;;3.25;;
23531;SDS011;11943;52.270;20.978;2023-05-19T02:12:59;5.10;;;3.05;;
23531;SDS011;11943;52.270;20.978;2023-05-19T02:15:29;6.18;;;3.00;;
23531;SDS011;11943;52.270;20.978;2023-05-19T02:18:02;4.40;;;3.40;;
23531;SDS011;11943;52.270;20.978;2023-05-19T02:20:29;5.00;;;3.28;;
23531;SDS011;11943;52.270;20.978;2023-05-19T02:22:55;4.28;;;3.00;;
23531;SDS011;11943;52.270;20.978;2023-05-19T02:25:22;7.03;;;3.10;;
23531;SDS011;11943;52.270;20.978;2023-05-19T02:27:49;4.93;;;3.65;;
23531;SDS011;11943;52.270;20.978;2023-05-19T02:30:15;5.28;;;3.33;;
23531;SDS011;11943;52.270;20.978;2023-05-19T02:32:41;7.53;;;3.55;;
23531;SDS011;11943;52.270;20.978;2023-05-19T02:35:10;6.65;;;3.78;;
23531;SDS011;11943;52.270;20.978;2023-05-19T02:37:36;5.80;;;4.10;;
23531;SDS011;11943;52.270;20.978;2023-05-19T02:40:02;8.48;;;4.32;;
23531;SDS011;11943;52.270;20.978;2023-05-19T02:42:28;8.77;;;4.15;;
23531;SDS011;11943;52.270;20.978;2023-05-19T02:44:54;5.47;;;3.85;;
23531;SDS011;11943;52.270;20.978;2023-05-19T02:47:20;5.30;;;3.72;;
23531;SDS011;11943;52.270;20.978;2023-05-19T02:49:45;6.25;;;3.90;;
23531;SDS011;11943;52.270;20.978;2023-05-19T02:52:11;6.40;;;4.45;;
23531;SDS011;11943;52.270;20.978;2023-05-19T02:54:36;5.88;;;4.15;;
23531;SDS011;11943;52.270;20.978;2023-05-19T02:57:02;4.65;;;3.75;;
23531;SDS011;11943;52.270;20.978;2023-05-19T02:59:28;5.18;;;4.18;;
23531;SDS011;11943;52.270;20.978;2023-05-19T03:01:54;5.50;;;4.43;;
23531;SDS011;11943;52.270;20.978;2023-05-19T03:04:21;10.23;;;4.50;;
23531;SDS011;11943;52.270;20.978;2023-05-19T03:06:46;6.60;;;4.05;;
23531;SDS011;11943;52.270;20.978;2023-05-19T03:09:12;6.63;;;4.25;;
23531;SDS011;11943;52.270;20.978;2023-05-19T03:11:39;7.63;;;4.60;;
23531;SDS011;11943;52.270;20.978;2023-05-19T03:14:04;5.63;;;4.32;;
23531;SDS011;11943;52.270;20.978;2023-05-19T03:16:30;7.93;;;4.43;;
23531;SDS011;11943;52.270;20.978;2023-05-19T03:18:56;7.82;;;3.90;;
23531;SDS011;11943;52.270;20.978;2023-05-19T03:21:22;6.10;;;4.10;;
23531;SDS011;11943;52.270;20.978;2023-05-19T03:23:48;7.35;;;4.10;;
23531;SDS011;11943;52.270;20.978;2023-05-19T03:26:13;9.95;;;4.95;;
23531;SDS011;11943;52.270;20.978;2023-05-19T03:28:39;10.00;;;4.40;;
23531;SDS011;11943;52.270;20.978;2023-05-19T03:31:04;5.45;;;4.40;;
23531;SDS011;11943;52.270;20.978;2023-05-19T03:33:30;8.13;;;4.15;;
23531;SDS011;11943;52.270;20.978;2023-05-19T03:35:56;6.20;;;4.45;;
23531;SDS011;11943;52.270;20.978;2023-05-19T03:38:22;9.40;;;4.80;;
23531;SDS011;11943;52.270;20.978;2023-05-19T03:40:47;7.18;;;4.00;;
23531;SDS011;11943;52.270;20.978;2023-05-19T03:43:13;8.68;;;4.50;;
23531;SDS011;11943;52.270;20.978;2023-05-19T03:45:40;4.82;;;4.10;;
23531;SDS011;11943;52.270;20.978;2023-05-19T03:48:06;6.07;;;4.13;;
23531;SDS011;11943;52.270;20.978;2023-05-19T03:50:32;5.57;;;4.05;;
23531;SDS011;11943;52.270;20.978;2023-05-19T03:52:58;11.18;;;4.38;;
23531;SDS011;11943;52.270;20.978;2023-05-19T03:55:26;8.13;;;4.75;;
23531;SDS011;11943;52.270;20.978;2023-05-19T03:57:53;9.95;;;5.10;;
23531;SDS011;11943;52.270;20.978;2023-05-19T04:00:20;8.60;;;4.43;;
23531;SDS011;11943;52.270;20.978;2023-05-19T04:02:45;8.27;;;4.53;;
23531;SDS011;11943;52.270;20.978;2023-05-19T04:05:11;7.82;;;4.13;;
23531;SDS011;11943;52.270;20.978;2023-05-19T04:07:37;8.00;;;4.65;;
23531;SDS011;11943;52.270;20.978;2023-05-19T04:10:05;6.88;;;4.25;;
23531;SDS011;11943;52.270;20.978;2023-05-19T04:12:31;7.55;;;4.20;;
23531;SDS011;11943;52.270;20.978;2023-05-19T04:14:57;10.13;;;4.40;;
23531;SDS011;11943;52.270;20.978;2023-05-19T04:17:23;4.50;;;3.75;;
23531;SDS011;11943;52.270;20.978;2023-05-19T04:19:50;6.50;;;4.03;;
23531;SDS011;11943;52.270;20.978;2023-05-19T04:22:17;5.90;;;3.85;;
23531;SDS011;11943;52.270;20.978;2023-05-19T04:24:42;6.13;;;4.07;;
23531;SDS011;11943;52.270;20.978;2023-05-19T04:27:08;5.43;;;3.67;;
23531;SDS011;11943;52.270;20.978;2023-05-19T04:32:02;8.70;;;3.83;;
23531;SDS011;11943;52.270;20.978;2023-05-19T04:34:32;7.20;;;4.05;;
23531;SDS011;11943;52.270;20.978;2023-05-19T04:36:59;6.53;;;4.03;;
23531;SDS011;11943;52.270;20.978;2023-05-19T04:39:25;5.85;;;3.75;;
23531;SDS011;11943;52.270;20.978;2023-05-19T04:41:50;5.57;;;3.90;;
23531;SDS011;11943;52.270;20.978;2023-05-19T04:44:18;6.93;;;4.30;;
23531;SDS011;11943;52.270;20.978;2023-05-19T04:46:44;4.68;;;3.80;;
23531;SDS011;11943;52.270;20.978;2023-05-19T04:49:10;6.85;;;4.00;;
23531;SDS011;11943;52.270;20.978;2023-05-19T04:51:38;4.10;;;3.33;;
23531;SDS011;11943;52.270;20.978;2023-05-19T04:54:08;3.72;;;3.40;;
23531;SDS011;11943;52.270;20.978;2023-05-19T04:56:34;5.35;;;3.83;;
23531;SDS011;11943;52.270;20.978;2023-05-19T04:59:00;4.18;;;3.33;;
23531;SDS011;11943;52.270;20.978;2023-05-19T05:01:26;5.55;;;3.60;;
23531;SDS011;11943;52.270;20.978;2023-05-19T05:03:52;6.90;;;3.40;;
23531;SDS011;11943;52.270;20.978;2023-05-19T05:06:23;5.72;;;3.35;;
23531;SDS011;11943;52.270;20.978;2023-05-19T05:08:48;10.45;;;3.58;;
23531;SDS011;11943;52.270;20.978;2023-05-19T05:11:15;8.35;;;3.45;;
23531;SDS011;11943;52.270;20.978;2023-05-19T05:13:41;5.72;;;3.40;;
23531;SDS011;11943;52.270;20.978;2023-05-19T05:16:07;8.85;;;3.55;;
23531;SDS011;11943;52.270;20.978;2023-05-19T05:18:33;4.82;;;3.72;;
23531;SDS011;11943;52.270;20.978;2023-05-19T05:21:02;5.47;;;3.53;;
23531;SDS011;11943;52.270;20.978;2023-05-19T05:23:28;4.50;;;3.30;;
23531;SDS011;11943;52.270;20.978;2023-05-19T05:25:54;4.30;;;3.00;;
23531;SDS011;11943;52.270;20.978;2023-05-19T05:28:20;5.28;;;3.22;;
23531;SDS011;11943;52.270;20.978;2023-05-19T05:30:46;5.80;;;3.58;;
23531;SDS011;11943;52.270;20.978;2023-05-19T05:33:13;6.43;;;3.25;;
23531;SDS011;11943;52.270;20.978;2023-05-19T05:35:38;4.32;;;3.42;;
23531;SDS011;11943;52.270;20.978;2023-05-19T05:38:04;6.35;;;3.00;;
23531;SDS011;11943;52.270;20.978;2023-05-19T05:40:30;5.53;;;3.20;;
23531;SDS011;11943;52.270;20.978;2023-05-19T05:42:56;5.32;;;3.10;;
23531;SDS011;11943;52.270;20.978;2023-05-19T05:45:23;7.60;;;3.00;;
23531;SDS011;11943;52.270;20.978;2023-05-19T05:47:49;6.43;;;3.45;;
23531;SDS011;11943;52.270;20.978;2023-05-19T05:50:16;6.47;;;3.30;;
23531;SDS011;11943;52.270;20.978;2023-05-19T05:52:45;5.60;;;2.90;;
23531;SDS011;11943;52.270;20.978;2023-05-19T05:55:11;12.50;;;3.10;;
23531;SDS011;11943;52.270;20.978;2023-05-19T05:57:37;4.30;;;3.10;;
23531;SDS011;11943;52.270;20.978;2023-05-19T06:00:07;4.07;;;3.20;;
23531;SDS011;11943;52.270;20.978;2023-05-19T06:02:39;5.93;;;3.22;;
23531;SDS011;11943;52.270;20.978;2023-05-19T06:05:11;5.20;;;3.30;;
23531;SDS011;11943;52.270;20.978;2023-05-19T06:07:37;4.72;;;2.92;;
23531;SDS011;11943;52.270;20.978;2023-05-19T06:10:04;5.07;;;3.00;;
23531;SDS011;11943;52.270;20.978;2023-05-19T06:12:31;5.67;;;3.23;;
23531;SDS011;11943;52.270;20.978;2023-05-19T06:14:56;4.22;;;2.97;;
23531;SDS011;11943;52.270;20.978;2023-05-19T06:17:22;4.00;;;2.83;;
23531;SDS011;11943;52.270;20.978;2023-05-19T06:19:47;4.32;;;2.92;;
23531;SDS011;11943;52.270;20.978;2023-05-19T06:22:13;8.43;;;3.53;;
23531;SDS011;11943;52.270;20.978;2023-05-19T06:24:39;8.27;;;2.90;;
23531;SDS011;11943;52.270;20.978;2023-05-19T06:27:04;7.22;;;3.75;;
23531;SDS011;11943;52.270;20.978;2023-05-19T06:29:30;3.30;;;2.53;;
23531;SDS011;11943;52.270;20.978;2023-05-19T06:31:55;3.97;;;2.45;;
23531;SDS011;11943;52.270;20.978;2023-05-19T06:34:21;6.78;;;3.22;;
23531;SDS011;11943;52.270;20.978;2023-05-19T06:36:47;6.97;;;3.42;;
23531;SDS011;11943;52.270;20.978;2023-05-19T06:39:12;3.35;;;2.75;;
23531;SDS011;11943;52.270;20.978;2023-05-19T06:41:38;4.35;;;2.50;;
23531;SDS011;11943;52.270;20.978;2023-05-19T06:44:05;6.47;;;2.90;;
23531;SDS011;11943;52.270;20.978;2023-05-19T06:46:32;3.92;;;2.70;;
23531;SDS011;11943;52.270;20.978;2023-05-19T06:48:58;3.20;;;2.90;;
23531;SDS011;11943;52.270;20.978;2023-05-19T06:51:23;4.05;;;2.65;;
23531;SDS011;11943;52.270;20.978;2023-05-19T06:53:49;6.00;;;2.58;;
23531;SDS011;11943;52.270;20.978;2023-05-19T06:56:15;3.75;;;2.72;;
23531;SDS011;11943;52.270;20.978;2023-05-19T06:58:41;3.95;;;2.70;;
23531;SDS011;11943;52.270;20.978;2023-05-19T07:01:07;7.43;;;3.00;;
23531;SDS011;11943;52.270;20.978;2023-05-19T07:03:33;5.50;;;2.53;;
23531;SDS011;11943;52.270;20.978;2023-05-19T07:05:59;3.55;;;2.80;;
23531;SDS011;11943;52.270;20.978;2023-05-19T07:08:25;5.35;;;2.90;;
23531;SDS011;11943;52.270;20.978;2023-05-19T07:10:52;5.27;;;3.00;;
23531;SDS011;11943;52.270;20.978;2023-05-19T07:13:18;3.72;;;2.70;;
23531;SDS011;11943;52.270;20.978;2023-05-19T07:15:43;4.40;;;2.17;;
23531;SDS011;11943;52.270;20.978;2023-05-19T07:18:09;3.10;;;2.60;;
23531;SDS011;11943;52.270;20.978;2023-05-19T07:20:35;5.90;;;2.67;;
23531;SDS011;11943;52.270;20.978;2023-05-19T07:23:00;5.00;;;3.35;;
23531;SDS011;11943;52.270;20.978;2023-05-19T07:25:29;15.05;;;3.90;;
23531;SDS011;11943;52.270;20.978;2023-05-19T07:27:55;5.90;;;3.30;;
23531;SDS011;11943;52.270;20.978;2023-05-19T07:30:21;4.03;;;2.85;;
23531;SDS011;11943;52.270;20.978;2023-05-19T07:32:47;5.88;;;2.92;;
23531;SDS011;11943;52.270;20.978;2023-05-19T07:35:12;5.28;;;3.00;;
23531;SDS011;11943;52.270;20.978;2023-05-19T07:37:38;3.72;;;2.70;;
23531;SDS011;11943;52.270;20.978;2023-05-19T07:40:04;4.65;;;2.97;;
23531;SDS011;11943;52.270;20.978;2023-05-19T07:42:33;6.95;;;2.80;;
23531;SDS011;11943;52.270;20.978;2023-05-19T07:44:59;9.35;;;3.08;;
23531;SDS011;11943;52.270;20.978;2023-05-19T07:47:25;24.98;;;4.50;;
23531;SDS011;11943;52.270;20.978;2023-05-19T07:49:51;6.38;;;3.17;;
23531;SDS011;11943;52.270;20.978;2023-05-19T07:52:16;6.00;;;3.22;;
23531;SDS011;11943;52.270;20.978;2023-05-19T07:54:42;4.35;;;2.85;;
23531;SDS011;11943;52.270;20.978;2023-05-19T07:57:08;6.38;;;3.45;;
23531;SDS011;11943;52.270;20.978;2023-05-19T07:59:34;7.65;;;3.72;;
23531;SDS011;11943;52.270;20.978;2023-05-19T08:02:00;8.32;;;3.45;;
23531;SDS011;11943;52.270;20.978;2023-05-19T08:04:26;3.70;;;2.88;;
23531;SDS011;11943;52.270;20.978;2023-05-19T08:06:51;6.00;;;3.10;;
23531;SDS011;11943;52.270;20.978;2023-05-19T08:09:18;8.13;;;3.35;;
23531;SDS011;11943;52.270;20.978;2023-05-19T08:11:44;9.10;;;3.72;;
23531;SDS011;11943;52.270;20.978;2023-05-19T08:14:10;7.20;;;3.72;;
23531;SDS011;11943;52.270;20.978;2023-05-19T08:16:36;5.88;;;3.42;;
23531;SDS011;11943;52.270;20.978;2023-05-19T08:19:02;5.63;;;3.60;;
23531;SDS011;11943;52.270;20.978;2023-05-19T08:21:29;6.38;;;3.60;;
23531;SDS011;11943;52.270;20.978;2023-05-19T08:23:58;7.70;;;3.55;;
23531;SDS011;11943;52.270;20.978;2023-05-19T08:26:25;8.10;;;3.25;;
23531;SDS011;11943;52.270;20.978;2023-05-19T08:28:51;15.50;;;4.22;;
23531;SDS011;11943;52.270;20.978;2023-05-19T08:31:17;16.52;;;3.65;;
23531;SDS011;11943;52.270;20.978;2023-05-19T08:33:43;14.88;;;3.58;;
23531;SDS011;11943;52.270;20.978;2023-05-19T08:36:09;8.70;;;4.00;;
23531;SDS011;11943;52.270;20.978;2023-05-19T08:38:35;8.05;;;4.18;;
23531;SDS011;11943;52.270;20.978;2023-05-19T08:41:01;9.65;;;3.95;;
23531;SDS011;11943;52.270;20.978;2023-05-19T08:43:27;7.85;;;4.05;;
23531;SDS011;11943;52.270;20.978;2023-05-19T08:45:53;13.32;;;3.92;;
23531;SDS011;11943;52.270;20.978;2023-05-19T08:48:19;10.48;;;4.57;;
23531;SDS011;11943;52.270;20.978;2023-05-19T08:50:50;12.23;;;3.92;;
23531;SDS011;11943;52.270;20.978;2023-05-19T08:53:24;11.32;;;3.70;;
23531;SDS011;11943;52.270;20.978;2023-05-19T08:56:06;11.38;;;3.67;;
23531;SDS011;11943;52.270;20.978;2023-05-19T08:58:39;10.15;;;4.40;;
23531;SDS011;11943;52.270;20.978;2023-05-19T09:01:07;14.43;;;4.32;;
23531;SDS011;11943;52.270;20.978;2023-05-19T09:03:35;9.10;;;4.03;;
23531;SDS011;11943;52.270;20.978;2023-05-19T09:06:05;9.02;;;3.92;;
23531;SDS011;11943;52.270;20.978;2023-05-19T09:08:41;11.48;;;4.28;;
23531;SDS011;11943;52.270;20.978;2023-05-19T09:11:10;11.80;;;4.68;;
23531;SDS011;11943;52.270;20.978;2023-05-19T09:13:36;14.43;;;5.05;;
23531;SDS011;11943;52.270;20.978;2023-05-19T09:16:01;14.95;;;5.00;;
23531;SDS011;11943;52.270;20.978;2023-05-19T09:18:27;15.27;;;5.95;;
23531;SDS011;11943;52.270;20.978;2023-05-19T09:20:59;11.98;;;4.30;;
23531;SDS011;11943;52.270;20.978;2023-05-19T09:23:30;12.13;;;5.03;;
23531;SDS011;11943;52.270;20.978;2023-05-19T09:26:00;18.50;;;5.35;;
23531;SDS011;11943;52.270;20.978;2023-05-19T09:33:38;12.32;;;4.40;;
23531;SDS011;11943;52.270;20.978;2023-05-19T09:36:08;11.32;;;4.55;;
23531;SDS011;11943;52.270;20.978;2023-05-19T09:38:35;14.68;;;4.78;;
23531;SDS011;11943;52.270;20.978;2023-05-19T09:41:03;16.30;;;5.10;;
23531;SDS011;11943;52.270;20.978;2023-05-19T09:43:30;17.35;;;5.80;;
23531;SDS011;11943;52.270;20.978;2023-05-19T09:48:35;17.05;;;5.82;;
23531;SDS011;11943;52.270;20.978;2023-05-19T09:51:01;13.75;;;5.10;;
23531;SDS011;11943;52.270;20.978;2023-05-19T09:53:29;13.35;;;5.13;;
23531;SDS011;11943;52.270;20.978;2023-05-19T09:55:56;14.52;;;4.78;;
23531;SDS011;11943;52.270;20.978;2023-05-19T09:58:23;13.60;;;4.88;;
23531;SDS011;11943;52.270;20.978;2023-05-19T10:00:50;13.75;;;5.30;;
23531;SDS011;11943;52.270;20.978;2023-05-19T10:03:19;19.83;;;4.80;;
23531;SDS011;11943;52.270;20.978;2023-05-19T10:05:47;13.65;;;5.20;;
23531;SDS011;11943;52.270;20.978;2023-05-19T10:08:14;22.92;;;5.88;;
23531;SDS011;11943;52.270;20.978;2023-05-19T10:10:41;16.77;;;5.38;;
23531;SDS011;11943;52.270;20.978;2023-05-19T10:15:36;18.85;;;5.30;;
23531;SDS011;11943;52.270;20.978;2023-05-19T10:18:01;14.35;;;5.25;;
23531;SDS011;11943;52.270;20.978;2023-05-19T10:20:27;16.23;;;6.00;;
23531;SDS011;11943;52.270;20.978;2023-05-19T10:22:54;14.25;;;5.88;;
23531;SDS011;11943;52.270;20.978;2023-05-19T10:25:20;14.48;;;5.88;;
23531;SDS011;11943;52.270;20.978;2023-05-19T10:30:31;13.35;;;5.30;;
23531;SDS011;11943;52.270;20.978;2023-05-19T10:33:00;11.85;;;5.10;;
23531;SDS011;11943;52.270;20.978;2023-05-19T10:38:23;19.98;;;5.72;;
23531;SDS011;11943;52.270;20.978;2023-05-19T10:40:56;13.73;;;5.50;;
23531;SDS011;11943;52.270;20.978;2023-05-19T10:46:13;12.35;;;5.32;;
23531;SDS011;11943;52.270;20.978;2023-05-19T10:48:42;14.85;;;4.75;;
23531;SDS011;11943;52.270;20.978;2023-05-19T10:51:09;20.13;;;5.47;;
23531;SDS011;11943;52.270;20.978;2023-05-19T10:53:37;17.77;;;5.65;;
23531;SDS011;11943;52.270;20.978;2023-05-19T10:56:05;9.77;;;4.90;;
23531;SDS011;11943;52.270;20.978;2023-05-19T11:01:13;12.57;;;5.47;;
23531;SDS011;11943;52.270;20.978;2023-05-19T11:03:44;12.02;;;5.50;;
23531;SDS011;11943;52.270;20.978;2023-05-19T11:06:31;10.13;;;5.13;;
23531;SDS011;11943;52.270;20.978;2023-05-19T11:09:18;11.90;;;5.80;;
23531;SDS011;11943;52.270;20.978;2023-05-19T11:11:49;9.43;;;4.95;;
23531;SDS011;11943;52.270;20.978;2023-05-19T11:17:03;12.98;;;5.82;;
23531;SDS011;11943;52.270;20.978;2023-05-19T11:19:30;11.77;;;5.03;;
23531;SDS011;11943;52.270;20.978;2023-05-19T11:22:06;12.75;;;5.03;;
23531;SDS011;11943;52.270;20.978;2023-05-19T11:24:43;11.50;;;4.75;;
23531;SDS011;11943;52.270;20.978;2023-05-19T11:27:21;10.07;;;4.95;;
23531;SDS011;11943;52.270;20.978;2023-05-19T11:29:47;16.63;;;5.15;;
23531;SDS011;11943;52.270;20.978;2023-05-19T11:32:13;15.05;;;5.43;;
23531;SDS011;11943;52.270;20.978;2023-05-19T11:34:39;11.00;;;5.15;;
23531;SDS011;11943;52.270;20.978;2023-05-19T11:37:05;14.30;;;4.80;;
23531;SDS011;11943;52.270;20.978;2023-05-19T11:39:32;12.77;;;4.65;;
23531;SDS011;11943;52.270;20.978;2023-05-19T11:41:58;12.35;;;5.15;;
23531;SDS011;11943;52.270;20.978;2023-05-19T11:44:24;10.07;;;5.00;;
23531;SDS011;11943;52.270;20.978;2023-05-19T11:46:50;9.38;;;4.82;;
23531;SDS011;11943;52.270;20.978;2023-05-19T11:49:15;10.63;;;4.95;;
23531;SDS011;11943;52.270;20.978;2023-05-19T11:51:42;11.68;;;4.75;;
23531;SDS011;11943;52.270;20.978;2023-05-19T11:54:21;9.90;;;4.78;;
23531;SDS011;11943;52.270;20.978;2023-05-19T11:57:03;18.13;;;4.80;;
23531;SDS011;11943;52.270;20.978;2023-05-19T11:59:33;11.32;;;4.93;;
23531;SDS011;11943;52.270;20.978;2023-05-19T12:02:01;7.47;;;4.93;;
23531;SDS011;11943;52.270;20.978;2023-05-19T12:04:52;15.63;;;5.35;;
23531;SDS011;11943;52.270;20.978;2023-05-19T12:07:22;13.18;;;5.82;;
23531;SDS011;11943;52.270;20.978;2023-05-19T12:09:50;11.52;;;4.88;;
23531;SDS011;11943;52.270;20.978;2023-05-19T12:12:18;11.73;;;4.57;;
23531;SDS011;11943;52.270;20.978;2023-05-19T12:14:45;11.75;;;4.85;;
23531;SDS011;11943;52.270;20.978;2023-05-19T12:17:15;9.35;;;5.10;;
23531;SDS011;11943;52.270;20.978;2023-05-19T12:19:44;11.30;;;4.75;;
23531;SDS011;11943;52.270;20.978;2023-05-19T12:22:11;9.18;;;4.38;;
23531;SDS011;11943;52.270;20.978;2023-05-19T12:24:38;12.07;;;5.13;;
23531;SDS011;11943;52.270;20.978;2023-05-19T12:27:10;9.90;;;4.85;;
23531;SDS011;11943;52.270;20.978;2023-05-19T12:29:41;9.85;;;5.05;;
23531;SDS011;11943;52.270;20.978;2023-05-19T12:32:07;8.77;;;5.38;;
23531;SDS011;11943;52.270;20.978;2023-05-19T12:34:37;10.00;;;4.60;;
23531;SDS011;11943;52.270;20.978;2023-05-19T12:37:04;7.88;;;4.32;;
23531;SDS011;11943;52.270;20.978;2023-05-19T12:39:30;12.82;;;5.10;;
23531;SDS011;11943;52.270;20.978;2023-05-19T12:42:07;11.27;;;5.05;;
23531;SDS011;11943;52.270;20.978;2023-05-19T12:44:37;12.30;;;4.78;;
23531;SDS011;11943;52.270;20.978;2023-05-19T12:47:14;6.80;;;4.47;;
23531;SDS011;11943;52.270;20.978;2023-05-19T12:52:44;15.13;;;5.50;;
23531;SDS011;11943;52.270;20.978;2023-05-19T12:55:12;8.55;;;4.68;;
23531;SDS011;11943;52.270;20.978;2023-05-19T12:57:43;7.38;;;4.63;;
23531;SDS011;11943;52.270;20.978;2023-05-19T13:00:13;10.13;;;4.88;;
23531;SDS011;11943;52.270;20.978;2023-05-19T13:05:29;8.90;;;5.28;;
23531;SDS011;11943;52.270;20.978;2023-05-19T13:08:03;13.98;;;5.32;;
23531;SDS011;11943;52.270;20.978;2023-05-19T13:10:29;15.88;;;5.85;;
23531;SDS011;11943;52.270;20.978;2023-05-19T13:12:56;9.13;;;4.60;;
23531;SDS011;11943;52.270;20.978;2023-05-19T13:15:23;12.07;;;5.20;;
23531;SDS011;11943;52.270;20.978;2023-05-19T13:17:53;8.15;;;5.07;;
23531;SDS011;11943;52.270;20.978;2023-05-19T13:20:19;13.18;;;4.80;;
23531;SDS011;11943;52.270;20.978;2023-05-19T13:22:46;11.40;;;5.47;;
23531;SDS011;11943;52.270;20.978;2023-05-19T13:25:12;7.40;;;4.80;;
23531;SDS011;11943;52.270;20.978;2023-05-19T13:27:38;11.18;;;5.40;;
23531;SDS011;11943;52.270;20.978;2023-05-19T13:30:04;16.30;;;5.35;;
23531;SDS011;11943;52.270;20.978;2023-05-19T13:32:31;11.55;;;5.60;;
23531;SDS011;11943;52.270;20.978;2023-05-19T13:34:57;9.90;;;5.38;;
23531;SDS011;11943;52.270;20.978;2023-05-19T13:37:23;10.63;;;5.03;;
23531;SDS011;11943;52.270;20.978;2023-05-19T13:39:49;12.43;;;5.15;;
23531;SDS011;11943;52.270;20.978;2023-05-19T13:42:15;11.70;;;4.85;;
23531;SDS011;11943;52.270;20.978;2023-05-19T13:44:41;19.00;;;5.75;;
23531;SDS011;11943;52.270;20.978;2023-05-19T13:47:08;9.80;;;5.30;;
23531;SDS011;11943;52.270;20.978;2023-05-19T13:49:34;16.27;;;5.07;;
23531;SDS011;11943;52.270;20.978;2023-05-19T13:52:00;7.60;;;5.55;;
23531;SDS011;11943;52.270;20.978;2023-05-19T13:54:26;13.43;;;5.30;;
23531;SDS011;11943;52.270;20.978;2023-05-19T13:56:51;13.43;;;5.25;;
23531;SDS011;11943;52.270;20.978;2023-05-19T13:59:17;9.00;;;4.97;;
23531;SDS011;11943;52.270;20.978;2023-05-19T14:01:43;9.05;;;5.03;;
23531;SDS011;11943;52.270;20.978;2023-05-19T14:04:09;14.43;;;4.88;;
23531;SDS011;11943;52.270;20.978;2023-05-19T14:06:35;9.80;;;5.50;;
23531;SDS011;11943;52.270;20.978;2023-05-19T14:09:04;10.95;;;4.97;;
23531;SDS011;11943;52.270;20.978;2023-05-19T14:11:30;9.43;;;4.90;;
23531;SDS011;11943;52.270;20.978;2023-05-19T14:13:56;8.15;;;4.68;;
23531;SDS011;11943;52.270;20.978;2023-05-19T14:16:22;13.30;;;5.57;;
23531;SDS011;11943;52.270;20.978;2023-05-19T14:18:50;6.55;;;4.70;;
23531;SDS011;11943;52.270;20.978;2023-05-19T14:21:15;7.80;;;4.97;;
23531;SDS011;11943;52.270;20.978;2023-05-19T14:23:41;13.75;;;4.47;;
23531;SDS011;11943;52.270;20.978;2023-05-19T14:26:07;14.35;;;4.95;;
23531;SDS011;11943;52.270;20.978;2023-05-19T14:28:32;11.10;;;5.28;;
23531;SDS011;11943;52.270;20.978;2023-05-19T14:30:58;8.85;;;5.43;;
23531;SDS011;11943;52.270;20.978;2023-05-19T14:33:23;18.15;;;5.22;;
23531;SDS011;11943;52.270;20.978;2023-05-19T14:35:49;9.38;;;4.70;;
23531;SDS011;11943;52.270;20.978;2023-05-19T14:38:16;7.90;;;4.57;;
23531;SDS011;11943;52.270;20.978;2023-05-19T14:40:42;14.15;;;5.45;;
23531;SDS011;11943;52.270;20.978;2023-05-19T14:43:09;7.80;;;4.65;;
23531;SDS011;11943;52.270;20.978;2023-05-19T14:45:35;9.65;;;4.78;;
23531;SDS011;11943;52.270;20.978;2023-05-19T14:48:02;17.08;;;5.82;;
23531;SDS011;11943;52.270;20.978;2023-05-19T14:50:28;9.63;;;4.50;;
23531;SDS011;11943;52.270;20.978;2023-05-19T14:52:53;7.50;;;4.20;;
23531;SDS011;11943;52.270;20.978;2023-05-19T14:55:19;11.55;;;5.22;;
23531;SDS011;11943;52.270;20.978;2023-05-19T14:57:44;9.95;;;4.72;;
23531;SDS011;11943;52.270;20.978;2023-05-19T15:00:10;12.68;;;5.28;;
23531;SDS011;11943;52.270;20.978;2023-05-19T15:02:36;11.75;;;5.25;;
23531;SDS011;11943;52.270;20.978;2023-05-19T15:05:02;9.30;;;4.97;;
23531;SDS011;11943;52.270;20.978;2023-05-19T15:07:28;8.48;;;5.38;;
23531;SDS011;11943;52.270;20.978;2023-05-19T15:09:54;8.73;;;4.80;;
23531;SDS011;11943;52.270;20.978;2023-05-19T15:12:19;10.25;;;4.78;;
23531;SDS011;11943;52.270;20.978;2023-05-19T15:14:45;10.02;;;5.38;;
23531;SDS011;11943;52.270;20.978;2023-05-19T15:17:10;16.33;;;5.50;;
23531;SDS011;11943;52.270;20.978;2023-05-19T15:19:36;11.93;;;5.78;;
23531;SDS011;11943;52.270;20.978;2023-05-19T15:22:02;9.00;;;5.20;;
23531;SDS011;11943;52.270;20.978;2023-05-19T15:24:28;11.00;;;5.85;;